createdAt,value
2018-05-27T00:01:49.611Z,18.80
2018-05-27T00:04:17.075Z,18.80
2018-05-27T00:06:44.539Z,18.80
2018-05-27T00:09:12.020Z,18.80
2018-05-27T00:11:39.485Z,18.80
2018-05-27T00:14:06.966Z,18.70
2018-05-27T00:16:34.434Z,18.70
2018-05-27T00:19:01.909Z,18.70
2018-05-27T00:21:30.141Z,18.60
2018-05-27T00:23:57.642Z,18.60
2018-05-27T00:26:25.884Z,18.50
2018-05-27T00:28:53.362Z,18.50
2018-05-27T00:31:20.828Z,18.50
2018-05-27T00:33:48.294Z,18.50
2018-05-27T00:36:15.775Z,18.40
2018-05-27T00:38:43.238Z,18.40
2018-05-27T00:41:10.701Z,18.40
2018-05-27T00:43:38.172Z,18.40
2018-05-27T00:46:06.388Z,18.40
2018-05-27T00:48:33.874Z,18.40
2018-05-27T00:51:01.332Z,18.40
2018-05-27T00:53:40.677Z,18.40
2018-05-27T00:56:08.135Z,18.30
2018-05-27T00:58:35.603Z,18.30
2018-05-27T01:01:03.064Z,18.20
2018-05-27T01:03:30.533Z,18.20
2018-05-27T01:05:58.775Z,18.10
2018-05-27T01:08:26.233Z,18.10
2018-05-27T01:10:53.709Z,18.10
2018-05-27T01:13:21.171Z,18.10
2018-05-27T01:15:48.816Z,18.10
2018-05-27T01:18:17.065Z,18.00
2018-05-27T01:20:44.528Z,18.00
2018-05-27T01:23:12.011Z,18.00
2018-05-27T01:25:39.478Z,18.00
2018-05-27T01:28:07.707Z,17.90
2018-05-27T01:30:35.185Z,17.90
2018-05-27T01:33:02.652Z,17.80
2018-05-27T01:35:30.144Z,17.80
2018-05-27T01:37:57.613Z,17.80
2018-05-27T01:40:25.103Z,17.80
2018-05-27T01:42:52.584Z,17.70
2018-05-27T01:45:20.051Z,17.60
2018-05-27T01:47:47.530Z,17.60
2018-05-27T01:50:15.008Z,17.60
2018-05-27T01:52:42.503Z,17.60
2018-05-27T01:55:10.725Z,17.50
2018-05-27T01:57:38.198Z,17.50
2018-05-27T02:00:05.654Z,17.50
2018-05-27T02:02:33.128Z,17.50
2018-05-27T02:05:00.596Z,17.40
2018-05-27T02:07:28.059Z,17.40
2018-05-27T02:09:55.532Z,17.40
2018-05-27T02:12:23.002Z,17.30
2018-05-27T02:14:50.464Z,17.30
2018-05-27T02:17:17.934Z,17.30
2018-05-27T02:19:45.394Z,17.20
2018-05-27T02:22:12.888Z,17.20
2018-05-27T02:24:41.123Z,17.20
2018-05-27T02:27:08.587Z,17.20
2018-05-27T02:29:36.057Z,17.20
2018-05-27T02:32:03.520Z,17.20
2018-05-27T02:34:31.004Z,17.10
2018-05-27T02:36:58.467Z,17.10
2018-05-27T02:39:25.948Z,17.00
2018-05-27T02:41:54.167Z,16.90
2018-05-27T02:44:21.624Z,16.90
2018-05-27T02:46:49.081Z,16.90
2018-05-27T02:49:16.546Z,16.90
2018-05-27T02:51:44.014Z,16.90
2018-05-27T02:54:11.474Z,16.90
2018-05-27T02:56:38.940Z,16.90
2018-05-27T02:59:06.403Z,16.80
2018-05-27T03:01:33.874Z,16.80
2018-05-27T03:04:01.356Z,16.80
2018-05-27T03:06:28.820Z,16.80
2018-05-27T03:08:56.285Z,16.70
2018-05-27T03:11:23.759Z,16.70
2018-05-27T03:13:51.223Z,16.70
2018-05-27T03:16:18.685Z,16.60
2018-05-27T03:18:46.918Z,16.50
2018-05-27T03:21:14.396Z,16.50
2018-05-27T03:23:41.866Z,16.50
2018-05-27T03:26:09.348Z,16.50
2018-05-27T03:28:36.809Z,16.50
2018-05-27T03:31:04.267Z,16.50
2018-05-27T03:33:31.728Z,16.50
2018-05-27T03:35:59.183Z,16.50
2018-05-27T03:38:26.660Z,16.40
2018-05-27T03:40:54.122Z,16.50
2018-05-27T03:43:21.591Z,16.40
2018-05-27T03:45:49.063Z,16.40
2018-05-27T03:48:16.524Z,16.40
2018-05-27T03:50:44.009Z,16.40
2018-05-27T03:53:11.473Z,16.40
2018-05-27T03:55:38.952Z,16.50
2018-05-27T03:58:07.172Z,16.40
2018-05-27T04:00:34.633Z,16.30
2018-05-27T04:03:02.099Z,16.40
2018-05-27T04:05:41.455Z,16.40
2018-05-27T04:08:20.790Z,16.40
2018-05-27T04:10:48.247Z,16.40
2018-05-27T04:13:15.735Z,16.40
2018-05-27T04:15:43.197Z,16.50
2018-05-27T04:18:10.681Z,16.50
2018-05-27T04:20:38.908Z,16.60
2018-05-27T04:23:06.389Z,16.60
2018-05-27T04:25:33.853Z,16.70
2018-05-27T04:28:01.335Z,16.90
2018-05-27T04:30:28.788Z,16.80
2018-05-27T04:32:56.250Z,16.90
2018-05-27T04:35:23.717Z,17.00
2018-05-27T04:37:51.189Z,17.10
2018-05-27T04:40:18.661Z,17.10
2018-05-27T04:42:46.132Z,17.20
2018-05-27T04:45:14.396Z,17.20
2018-05-27T04:47:41.862Z,17.20
2018-05-27T04:50:09.331Z,17.30
2018-05-27T04:52:36.814Z,17.30
2018-05-27T04:55:05.056Z,17.30
2018-05-27T04:57:32.533Z,17.30
2018-05-27T05:00:00.028Z,17.30
2018-05-27T05:02:28.249Z,17.30
2018-05-27T05:04:55.718Z,17.30
2018-05-27T05:07:23.168Z,17.30
2018-05-27T05:09:50.653Z,17.30
2018-05-27T05:12:18.111Z,17.40
2018-05-27T05:14:45.568Z,17.40
2018-05-27T05:17:13.028Z,17.50
2018-05-27T05:19:40.481Z,17.60
2018-05-27T05:22:07.965Z,17.70
2018-05-27T05:24:35.416Z,17.80
2018-05-27T05:27:02.903Z,17.80
2018-05-27T05:29:30.367Z,17.90
2018-05-27T05:31:57.835Z,18.00
2018-05-27T05:34:25.295Z,18.00
2018-05-27T05:36:52.755Z,18.10
2018-05-27T05:39:21.013Z,18.30
2018-05-27T05:41:48.481Z,18.30
2018-05-27T05:44:15.965Z,18.30
2018-05-27T05:46:43.425Z,18.40
2018-05-27T05:49:10.891Z,18.50
2018-05-27T05:51:38.361Z,18.60
2018-05-27T05:54:05.833Z,18.80
2018-05-27T05:56:33.321Z,18.80
2018-05-27T05:59:01.544Z,19.20
2018-05-27T06:01:29.021Z,19.10
2018-05-27T06:03:56.494Z,19.30
2018-05-27T06:06:23.962Z,19.40
2018-05-27T06:08:51.434Z,19.50
2018-05-27T06:11:18.898Z,19.60
2018-05-27T06:13:46.377Z,19.70
2018-05-27T06:16:14.609Z,20.20
2018-05-27T06:18:42.085Z,20.20
2018-05-27T06:21:09.558Z,20.50
2018-05-27T06:23:37.024Z,20.70
2018-05-27T06:26:04.528Z,20.80
2018-05-27T06:28:31.976Z,20.90
2018-05-27T06:30:59.449Z,21.00
2018-05-27T06:33:27.678Z,21.20
2018-05-27T06:35:55.509Z,21.10
2018-05-27T06:38:23.738Z,21.40
2018-05-27T06:40:51.210Z,21.40
2018-05-27T06:43:18.692Z,21.50
2018-05-27T06:45:46.155Z,21.60
2018-05-27T06:48:13.630Z,21.90
2018-05-27T06:50:41.878Z,22.60
2018-05-27T06:53:09.351Z,22.60
2018-05-27T06:55:36.814Z,22.80
2018-05-27T06:58:04.286Z,22.90
2018-05-27T07:00:31.765Z,23.00
2018-05-27T07:02:59.230Z,23.10
2018-05-27T07:05:26.688Z,23.20
2018-05-27T07:07:54.152Z,23.30
2018-05-27T07:10:21.634Z,23.50
2018-05-27T07:12:49.861Z,23.80
2018-05-27T07:15:17.337Z,23.80
2018-05-27T07:17:44.822Z,23.90
2018-05-27T07:20:12.279Z,24.30
2018-05-27T07:22:39.740Z,24.30
2018-05-27T07:25:07.203Z,24.20
2018-05-27T07:27:34.693Z,24.20
2018-05-27T07:30:02.930Z,24.20
2018-05-27T07:32:30.391Z,24.10
2018-05-27T07:34:57.855Z,24.20
2018-05-27T07:37:25.315Z,24.20
2018-05-27T07:39:52.796Z,24.30
2018-05-27T07:42:20.249Z,24.30
2018-05-27T07:44:47.730Z,24.30
2018-05-27T07:47:15.187Z,24.20
2018-05-27T07:49:42.644Z,24.30
2018-05-27T07:52:10.107Z,24.30
2018-05-27T07:54:37.580Z,24.30
2018-05-27T07:57:05.053Z,24.40
2018-05-27T07:59:32.519Z,24.50
2018-05-27T08:01:59.979Z,24.60
2018-05-27T08:04:27.449Z,24.70
2018-05-27T08:06:54.914Z,24.80
2018-05-27T08:09:22.395Z,24.90
2018-05-27T08:11:50.632Z,24.90
2018-05-27T08:14:18.112Z,24.90
2018-05-27T08:16:45.585Z,25.00
2018-05-27T08:19:13.043Z,25.00
2018-05-27T08:21:40.513Z,25.00
2018-05-27T08:24:07.976Z,25.00
2018-05-27T08:26:35.450Z,25.10
2018-05-27T08:29:03.684Z,25.40
2018-05-27T08:31:31.166Z,25.40
2018-05-27T08:33:58.632Z,25.50
2018-05-27T08:36:26.100Z,25.50
2018-05-27T08:38:53.561Z,25.50
2018-05-27T08:41:21.032Z,25.50
2018-05-27T08:43:48.502Z,25.60
2018-05-27T08:46:15.977Z,25.60
2018-05-27T08:48:44.202Z,25.70
2018-05-27T08:51:11.670Z,25.70
2018-05-27T08:53:39.165Z,25.70
2018-05-27T08:56:06.655Z,25.70
2018-05-27T08:58:34.900Z,25.90
2018-05-27T09:01:02.375Z,25.90
2018-05-27T09:03:29.849Z,25.90
2018-05-27T09:05:57.329Z,26.00
2018-05-27T09:08:25.549Z,26.00
2018-05-27T09:10:53.018Z,26.00
2018-05-27T09:13:20.492Z,26.00
2018-05-27T09:15:47.960Z,26.00
2018-05-27T09:18:15.427Z,26.10
2018-05-27T09:20:42.893Z,26.20
2018-05-27T09:23:10.367Z,26.20
2018-05-27T09:25:37.834Z,26.20
2018-05-27T09:28:05.297Z,26.10
2018-05-27T09:30:32.783Z,26.10
2018-05-27T09:33:01.022Z,26.00
2018-05-27T09:35:28.480Z,25.90
2018-05-27T09:37:56.727Z,25.90
2018-05-27T09:40:24.190Z,25.90
2018-05-27T09:42:51.677Z,25.90
2018-05-27T09:45:19.162Z,26.00
2018-05-27T09:47:46.634Z,26.00
2018-05-27T09:50:14.110Z,26.00
2018-05-27T09:52:41.568Z,25.90
2018-05-27T09:55:09.061Z,25.80
2018-05-27T09:57:37.292Z,25.90
2018-05-27T10:00:04.861Z,25.90
2018-05-27T10:02:32.242Z,26.00
2018-05-27T10:04:59.704Z,25.90
2018-05-27T10:07:27.167Z,26.00
2018-05-27T10:09:54.628Z,26.10
2018-05-27T10:12:22.123Z,26.30
2018-05-27T10:14:50.358Z,26.60
2018-05-27T10:17:17.886Z,26.60
2018-05-27T10:19:45.356Z,26.90
2018-05-27T10:22:12.826Z,27.10
2018-05-27T10:24:40.295Z,27.20
2018-05-27T10:27:07.762Z,27.40
2018-05-27T10:29:35.248Z,27.50
2018-05-27T10:32:02.716Z,27.80
2018-05-27T10:34:30.177Z,27.90
2018-05-27T10:36:57.654Z,27.80
2018-05-27T10:39:25.130Z,27.80
2018-05-27T10:41:53.388Z,27.90
2018-05-27T10:44:20.859Z,27.90
2018-05-27T10:46:48.320Z,28.00
2018-05-27T10:49:15.794Z,28.00
2018-05-27T10:51:43.275Z,28.00
2018-05-27T10:54:11.515Z,27.80
2018-05-27T10:56:38.989Z,27.80
2018-05-27T10:59:06.468Z,27.80
2018-05-27T11:01:33.955Z,27.80
2018-05-27T11:04:02.201Z,27.50
2018-05-27T11:06:29.674Z,27.40
2018-05-27T11:08:57.148Z,27.20
2018-05-27T11:11:25.387Z,26.90
2018-05-27T11:13:52.849Z,26.80
2018-05-27T11:16:20.315Z,26.80
2018-05-27T11:18:47.768Z,26.60
2018-05-27T11:21:15.230Z,26.50
2018-05-27T11:23:42.702Z,26.50
2018-05-27T11:26:10.187Z,26.50
2018-05-27T11:28:37.646Z,26.50
2018-05-27T11:31:05.133Z,26.60
2018-05-27T11:33:32.584Z,26.70
2018-05-27T11:36:00.054Z,26.70
2018-05-27T11:38:27.521Z,26.70
2018-05-27T11:40:54.986Z,26.90
2018-05-27T11:43:23.242Z,27.00
2018-05-27T11:45:50.698Z,27.00
2018-05-27T11:48:18.170Z,27.00
2018-05-27T11:50:45.634Z,26.90
2018-05-27T11:53:13.088Z,26.90
2018-05-27T11:55:40.570Z,26.70
2018-05-27T11:58:08.039Z,26.60
2018-05-27T12:00:35.525Z,26.60
2018-05-27T12:03:03.768Z,26.60
2018-05-27T12:05:31.245Z,26.50
2018-05-27T12:07:58.708Z,26.40
2018-05-27T12:10:26.174Z,26.30
2018-05-27T12:12:53.656Z,26.30
2018-05-27T12:15:21.903Z,26.40
2018-05-27T12:17:49.359Z,26.30
2018-05-27T12:20:16.830Z,26.40
2018-05-27T12:22:44.292Z,26.40
2018-05-27T12:25:11.774Z,26.40
2018-05-27T12:27:39.255Z,26.50
2018-05-27T12:30:06.724Z,26.60
2018-05-27T12:32:34.971Z,26.90
2018-05-27T12:35:02.431Z,26.90
2018-05-27T12:37:29.918Z,26.80
2018-05-27T12:39:57.386Z,26.90
2018-05-27T12:42:24.863Z,26.90
2018-05-27T12:44:54.502Z,27.00
2018-05-27T12:47:21.986Z,27.00
2018-05-27T12:49:50.273Z,26.90
2018-05-27T12:52:17.741Z,26.80
2018-05-27T12:54:45.202Z,26.70
2018-05-27T12:57:12.667Z,26.80
2018-05-27T12:59:40.146Z,26.80
2018-05-27T13:02:07.611Z,26.90
2018-05-27T13:04:35.074Z,26.90
2018-05-27T13:07:02.539Z,27.10
2018-05-27T13:09:30.004Z,27.10
2018-05-27T13:11:57.475Z,27.20
2018-05-27T13:14:24.947Z,27.20
2018-05-27T13:16:52.659Z,27.40
2018-05-27T13:19:19.907Z,27.40
2018-05-27T13:21:47.377Z,27.40
2018-05-27T13:24:14.851Z,27.10
2018-05-27T13:26:42.323Z,27.10
2018-05-27T13:29:09.818Z,27.00
2018-05-27T13:31:37.286Z,26.90
2018-05-27T13:34:04.749Z,26.90
2018-05-27T13:36:32.205Z,26.80
2018-05-27T13:38:59.679Z,26.80
2018-05-27T13:41:27.158Z,26.70
2018-05-27T13:43:55.395Z,26.50
2018-05-27T13:46:22.867Z,26.40
2018-05-27T13:48:50.338Z,26.40
2018-05-27T13:51:17.819Z,26.50
2018-05-27T13:53:45.319Z,26.60
2018-05-27T13:56:12.795Z,26.70
2018-05-27T13:58:40.277Z,27.00
2018-05-27T14:01:07.740Z,27.10
2018-05-27T14:03:35.208Z,27.10
2018-05-27T14:06:02.730Z,27.10
2018-05-27T14:08:30.165Z,27.10
2018-05-27T14:10:57.659Z,27.00
2018-05-27T14:13:25.125Z,26.80
2018-05-27T14:15:52.620Z,26.70
2018-05-27T14:18:20.085Z,26.70
2018-05-27T14:20:47.556Z,26.60
2018-05-27T14:23:15.039Z,26.50
2018-05-27T14:25:42.512Z,26.40
2018-05-27T14:28:09.991Z,26.30
2018-05-27T14:30:38.225Z,26.30
2018-05-27T14:33:05.680Z,26.30
2018-05-27T14:35:33.158Z,26.30
2018-05-27T14:38:00.632Z,26.40
2018-05-27T14:40:28.114Z,26.50
2018-05-27T14:42:56.354Z,26.50
2018-05-27T14:45:23.838Z,26.50
2018-05-27T14:47:51.305Z,26.50
2018-05-27T14:50:18.775Z,26.60
2018-05-27T14:52:46.236Z,26.70
2018-05-27T14:55:13.717Z,26.80
2018-05-27T14:57:41.966Z,27.10
2018-05-27T15:00:09.439Z,27.10
2018-05-27T15:02:36.921Z,27.20
2018-05-27T15:05:04.371Z,27.10
2018-05-27T15:07:31.850Z,27.20
2018-05-27T15:09:59.329Z,27.20
2018-05-27T15:12:27.576Z,27.30
2018-05-27T15:14:55.064Z,27.30
2018-05-27T15:17:22.534Z,27.40
2018-05-27T15:19:50.769Z,27.50
2018-05-27T15:22:18.243Z,27.50
2018-05-27T15:24:45.701Z,27.70
2018-05-27T15:27:13.938Z,27.90
2018-05-27T15:29:42.167Z,27.80
2018-05-27T15:32:09.699Z,27.80
2018-05-27T15:34:37.914Z,27.80
2018-05-27T15:37:05.378Z,27.70
2018-05-27T15:39:32.878Z,27.70
2018-05-27T15:42:01.114Z,27.50
2018-05-27T15:44:28.606Z,27.50
2018-05-27T15:46:56.089Z,27.30
2018-05-27T15:49:24.309Z,26.70
2018-05-27T15:51:51.785Z,26.60
2018-05-27T15:54:19.252Z,26.40
2018-05-27T15:56:46.754Z,26.20
2018-05-27T15:59:14.990Z,25.90
2018-05-27T16:01:42.458Z,25.90
2018-05-27T16:04:09.924Z,25.80
2018-05-27T16:06:37.383Z,25.70
2018-05-27T16:09:05.662Z,25.60
2018-05-27T16:11:33.135Z,25.60
2018-05-27T16:14:00.613Z,25.70
2018-05-27T16:16:28.140Z,25.80
2018-05-27T16:18:55.597Z,26.00
2018-05-27T16:21:23.075Z,26.30
2018-05-27T16:23:50.564Z,26.60
2018-05-27T16:26:18.039Z,26.80
2018-05-27T16:28:45.510Z,27.00
2018-05-27T16:31:12.964Z,27.20
2018-05-27T16:33:40.466Z,27.40
2018-05-27T16:36:07.959Z,27.50
2018-05-27T16:38:35.437Z,27.60
2018-05-27T16:41:02.919Z,27.70
2018-05-27T16:43:30.403Z,27.70
2018-05-27T16:45:57.876Z,27.70
2018-05-27T16:48:26.121Z,27.70
2018-05-27T16:50:53.586Z,27.70
2018-05-27T16:53:21.054Z,27.60
2018-05-27T16:55:48.526Z,27.40
2018-05-27T16:58:16.022Z,27.30
2018-05-27T17:00:43.508Z,27.40
2018-05-27T17:03:10.974Z,27.50
2018-05-27T17:05:38.445Z,27.70
2018-05-27T17:08:05.916Z,27.80
2018-05-27T17:10:33.416Z,27.90
2018-05-27T17:13:00.899Z,28.00
2018-05-27T17:15:29.128Z,28.20
2018-05-27T17:17:56.614Z,28.20
2018-05-27T17:20:24.856Z,28.60
2018-05-27T17:22:52.345Z,28.50
2018-05-27T17:25:19.811Z,28.90
2018-05-27T17:27:47.274Z,29.10
2018-05-27T17:30:14.746Z,29.20
2018-05-27T17:32:42.228Z,29.30
2018-05-27T17:35:09.752Z,29.20
2018-05-27T17:37:37.220Z,29.00
2018-05-27T17:40:04.690Z,29.10
2018-05-27T17:42:32.169Z,29.20
2018-05-27T17:44:59.631Z,29.40
2018-05-27T17:47:27.142Z,29.60
2018-05-27T17:49:54.614Z,29.60
2018-05-27T17:52:22.086Z,29.50
2018-05-27T17:54:49.565Z,29.40
2018-05-27T17:57:17.042Z,29.10
2018-05-27T17:59:44.546Z,28.90
2018-05-27T18:02:12.792Z,28.30
2018-05-27T18:04:40.293Z,28.20
2018-05-27T18:07:08.522Z,27.60
2018-05-27T18:09:36.759Z,27.30
2018-05-27T18:12:04.247Z,27.30
2018-05-27T18:14:31.726Z,27.10
2018-05-27T18:16:59.204Z,26.80
2018-05-27T18:19:26.665Z,26.60
2018-05-27T18:21:54.903Z,26.20
2018-05-27T18:24:22.408Z,26.10
2018-05-27T18:26:49.882Z,26.00
2018-05-27T18:29:18.374Z,25.80
2018-05-27T18:31:45.864Z,25.60
2018-05-27T18:34:14.105Z,25.30
2018-05-27T18:36:41.600Z,25.20
2018-05-27T18:39:09.068Z,25.10
2018-05-27T18:41:37.293Z,24.60
2018-05-27T18:44:04.772Z,24.60
2018-05-27T18:46:32.248Z,24.40
2018-05-27T18:48:59.721Z,24.10
2018-05-27T18:51:27.192Z,23.80
2018-05-27T18:53:54.804Z,23.60
2018-05-27T18:56:22.294Z,23.40
2018-05-27T18:58:49.774Z,23.20
2018-05-27T19:01:17.291Z,22.90
2018-05-27T19:03:44.763Z,22.80
2018-05-27T19:06:12.231Z,22.60
2018-05-27T19:08:39.709Z,22.50
2018-05-27T19:11:07.181Z,22.50
2018-05-27T19:13:34.678Z,22.40
2018-05-27T19:16:02.173Z,22.30
2018-05-27T19:18:30.436Z,22.30
2018-05-27T19:20:58.692Z,22.20
2018-05-27T19:23:26.190Z,22.10
2018-05-27T19:25:53.699Z,22.10
2018-05-27T19:28:21.207Z,22.00
2018-05-27T19:30:49.468Z,21.90
2018-05-27T19:33:16.938Z,21.90
2018-05-27T19:35:44.406Z,21.80
2018-05-27T19:38:11.897Z,21.80
2018-05-27T19:40:39.354Z,21.70
2018-05-27T19:43:07.599Z,21.60
2018-05-27T19:45:35.078Z,21.60
2018-05-27T19:48:02.539Z,21.60
2018-05-27T19:50:30.042Z,21.50
2018-05-27T19:52:57.519Z,21.40
2018-05-27T19:55:24.992Z,21.30
2018-05-27T19:57:52.490Z,21.30
2018-05-27T20:00:19.967Z,21.10
2018-05-27T20:02:47.451Z,21.00
2018-05-27T20:05:14.921Z,21.00
2018-05-27T20:07:42.387Z,20.90
2018-05-27T20:10:09.846Z,20.80
2018-05-27T20:12:37.315Z,20.70
2018-05-27T20:15:04.847Z,20.60
2018-05-27T20:17:32.293Z,20.50
2018-05-27T20:19:59.756Z,20.50
2018-05-27T20:22:27.236Z,20.40
2018-05-27T20:24:55.487Z,20.20
2018-05-27T20:27:23.730Z,20.10
2018-05-27T20:29:51.205Z,20.10
2018-05-27T20:32:18.664Z,20.00
2018-05-27T20:34:46.131Z,19.90
2018-05-27T20:37:13.652Z,19.80
2018-05-27T20:39:41.135Z,19.70
2018-05-27T20:42:09.376Z,19.70
2018-05-27T20:44:36.863Z,19.60
2018-05-27T20:47:04.336Z,19.60
2018-05-27T20:49:32.576Z,19.40
2018-05-27T20:52:00.066Z,19.40
2018-05-27T20:54:27.560Z,19.30
2018-05-27T20:56:56.654Z,19.20
2018-05-27T20:59:24.884Z,19.10
2018-05-27T21:01:52.355Z,19.10
2018-05-27T21:04:19.848Z,19.10
2018-05-27T21:06:47.332Z,19.20
2018-05-27T21:09:15.562Z,19.00
2018-05-27T21:11:43.039Z,19.00
2018-05-27T21:14:10.500Z,19.00
2018-05-27T21:16:37.986Z,19.00
2018-05-27T21:19:06.222Z,18.90
2018-05-27T21:21:33.692Z,18.90
2018-05-27T21:24:01.159Z,18.90
2018-05-27T21:26:28.632Z,19.00
2018-05-27T21:28:56.105Z,19.00
2018-05-27T21:31:23.573Z,19.00
2018-05-27T21:33:51.042Z,19.10
2018-05-27T21:36:18.512Z,19.10
2018-05-27T21:38:45.982Z,19.10
2018-05-27T21:41:14.221Z,19.10
2018-05-27T21:43:41.694Z,19.10
2018-05-27T21:46:09.213Z,19.10
2018-05-27T21:48:36.630Z,19.10
2018-05-27T21:51:04.104Z,19.00
2018-05-27T21:53:31.580Z,19.00
2018-05-27T21:55:59.832Z,18.90
2018-05-27T21:58:27.312Z,18.90
2018-05-27T22:00:54.778Z,18.90
2018-05-27T22:03:22.249Z,18.80
2018-05-27T22:05:49.726Z,18.70
2018-05-27T22:08:17.956Z,18.60
2018-05-27T22:10:46.204Z,18.50
2018-05-27T22:13:13.679Z,18.50
2018-05-27T22:15:41.144Z,18.50
2018-05-27T22:18:08.612Z,18.50
2018-05-27T22:20:36.087Z,18.40
2018-05-27T22:23:03.530Z,18.40
2018-05-27T22:25:30.999Z,18.30
2018-05-27T22:27:58.465Z,18.30
2018-05-27T22:30:25.951Z,18.30
2018-05-27T22:32:53.418Z,18.20
2018-05-27T22:35:20.887Z,18.20
2018-05-27T22:37:48.341Z,18.20
2018-05-27T22:40:15.812Z,18.10
2018-05-27T22:42:43.301Z,18.10
2018-05-27T22:45:10.771Z,18.10
2018-05-27T22:47:38.997Z,18.10
2018-05-27T22:50:06.457Z,18.00
2018-05-27T22:52:33.922Z,18.10
2018-05-27T22:55:01.409Z,18.10
2018-05-27T22:57:28.877Z,18.10
2018-05-27T22:59:56.347Z,18.10
2018-05-27T23:02:23.820Z,18.10
2018-05-27T23:04:51.287Z,18.10
2018-05-27T23:07:18.771Z,18.10
2018-05-27T23:09:46.999Z,18.10
2018-05-27T23:12:14.465Z,18.00
2018-05-27T23:14:41.925Z,18.10
2018-05-27T23:17:09.412Z,18.10
2018-05-27T23:19:36.889Z,18.00
2018-05-27T23:22:04.347Z,18.00
2018-05-27T23:24:31.815Z,18.00
2018-05-27T23:26:59.279Z,17.90
2018-05-27T23:29:26.741Z,17.90
2018-05-27T23:31:54.227Z,17.90
2018-05-27T23:34:22.454Z,17.90
2018-05-27T23:36:49.929Z,17.90
2018-05-27T23:39:17.391Z,17.90
2018-05-27T23:41:44.845Z,17.90
2018-05-27T23:44:12.329Z,17.90
2018-05-27T23:46:39.808Z,17.90
2018-05-27T23:49:07.274Z,17.90
2018-05-27T23:51:35.515Z,17.80
2018-05-27T23:54:02.980Z,17.80
2018-05-27T23:56:30.463Z,17.90
2018-05-27T23:58:57.929Z,17.80
